Terminal Aerodrome Forecast
Issued by NWS

Home | Current Version | Previous Version | Text Only | Print | Product List | Glossary On
Versions: 1 2 3 4 5 6 7 8 9 10 11 12 13 14 15 16 17 18 19 20 21 22 23 24 25 26 27 28 29 30 31 32 33
000
FTUS41 KOKX 241400 AAA
TAFHPN
TAF AMD
KHPN 241408Z 2414/2512 32010G20KT P6SM SCT025 BKN035
     FM242200 32011KT P6SM SCT040
     FM250200 31008KT P6SM SCT250
      AMD NOT SKED=

USA.gov is the U.S. government's official web portal to all federal, state and local government web resources and services.